ADDS METAR Data INFO
IDs: Format: Raw Decoded Include TAF

Data at: 1848 UTC 17 Oct 2017

KGOV 171836Z AUTO 24010G15KT 10SM CLR 18/07 A3003 RMK AO2 T01780067
KGOV 171815Z AUTO 24008G16KT 180V250 10SM CLR 17/07 A3004 RMK AO2 T01740067
KGOV 171755Z AUTO 24011G15KT 210V270 10SM CLR 18/07 A3004 RMK AO2 T01750065 10176 20086
KGOV 171736Z AUTO 24010G18KT 10SM CLR 17/07 A3004 RMK AO2 T01740065
KGOV 171715Z AUTO 23010G16KT 10SM CLR 17/07 A3004 RMK AO2 T01700065
KGOV 171655Z AUTO 24012G17KT 10SM CLR 17/06 A3004 RMK AO2 T01650061
KGOV 171636Z AUTO 25011G16KT 10SM CLR 16/06 A3004 RMK AO2 T01610061
KGOV 171615Z AUTO 26010G15KT 10SM CLR 16/06 A3004 RMK AO2 T01550063
KGOV 171555Z AUTO 25008G17KT 10SM CLR 15/07 A3004 RMK AO2 T01530065
KGOV 171535Z AUTO 23013G18KT 10SM CLR 15/06 A3004 RMK AO2 T01450063
KGOV 171515Z AUTO 24011G16KT 10SM CLR 15/06 A3004 RMK AO2 T01460063
KGOV 171456Z AUTO 24013G17KT 10SM CLR 14/06 A3004 RMK AO2 T01410062
KGOV 171435Z AUTO 24006KT 10SM CLR 14/06 A3004 RMK AO2 T01360062
KGOV 171415Z AUTO 21004KT 10SM CLR 12/06 A3003 RMK AO2 T01190060
KGOV 171356Z AUTO 22008KT 10SM CLR 12/06 A3003 RMK AO2 T01150056
KGOV 171335Z AUTO 22010KT 10SM CLR 11/05 A3003 RMK AO2 T01050052
KGOV 171315Z AUTO 22009G14KT 10SM CLR 10/05 A3004 RMK AO2 T00980048
KGOV 171256Z AUTO 22009G14KT 10SM CLR 09/05 A3003 RMK AO2 T00930046
KGOV 171235Z AUTO 23009KT 10SM CLR 09/05 A3003 RMK AO2 T00900045
KGOV 171215Z AUTO 22010G15KT 10SM CLR 09/04 A3003 RMK AO2 T00860042
KGOV 171156Z AUTO 23007G15KT 10SM CLR 09/04 A3003 RMK AO2 T00870041 10088 20048
KGOV 171135Z AUTO 23009G14KT 10SM CLR 09/04 A3002 RMK AO2 T00860041
KGOV 171116Z AUTO 22008G14KT 10SM CLR 09/04 A3002 RMK AO2 T00850040
KGOV 171056Z AUTO 22008KT 10SM CLR 08/04 A3003 RMK AO2 T00780036
KGOV 171035Z AUTO 22004KT 10SM CLR 07/04 A3004 RMK AO2 T00680035
KGOV 171016Z AUTO 16003KT 10SM CLR 06/03 A3005 RMK AO2 T00590028
KGOV 170956Z AUTO 17004KT 10SM CLR 06/03 A3006 RMK AO2 T00600028
KGOV 170935Z AUTO 16003KT 10SM CLR 07/03 A3006 RMK AO2 T00670028
KGOV 170916Z AUTO 22005KT 10SM SCT100 07/03 A3006 RMK AO2 T00730033
KGOV 170856Z AUTO 24004KT 10SM CLR 07/03 A3007 RMK AO2 T00700033
KGOV 170835Z AUTO 22004KT 10SM SCT110 05/03 A3007 RMK AO2 T00510028
KGOV 170816Z AUTO 00000KT 10SM SCT110 05/03 A3008 RMK AO2 T00500026
KGOV 170755Z AUTO 18004KT 10SM SCT100 05/03 A3009 RMK AO2 T00510027
KGOV 170735Z AUTO 19005KT 10SM SCT100 05/03 A3010 RMK AO2 T00530027
KGOV 170716Z AUTO 18005KT 10SM CLR 05/03 A3011 RMK AO2 T00510027
KGOV 170655Z AUTO 19004KT 10SM CLR 05/03 A3011 RMK AO2 T00500026
KGOV 170635Z AUTO 18005KT 10SM CLR 05/03 A3011 RMK AO2 T00520027
KGOV 170616Z AUTO 18004KT 10SM CLR 07/03 A3012 RMK AO2 T00650033
KGOV 170555Z AUTO 22005KT 10SM CLR 07/04 A3012 RMK AO2 T00690035 10079 20050 401241026
KGOV 170535Z AUTO 21005KT 10SM CLR 06/03 A3012 RMK AO2 T00640031
KGOV 170516Z AUTO 00000KT 10SM CLR 05/02 A3012 RMK AO2 T00500022
KGOV 170455Z AUTO 22004KT 10SM CLR 06/03 A3013 RMK AO2 T00630026
KGOV 170435Z AUTO 23003KT 10SM CLR 07/02 A3013 RMK AO2 T00650024
KGOV 170416Z AUTO 24004KT 10SM CLR 07/02 A3013 RMK AO2 T00670023
KGOV 170355Z AUTO 23005KT 10SM CLR 07/02 A3013 RMK AO2 T00710021
KGOV 170335Z AUTO 22004KT 10SM CLR 07/02 A3014 RMK AO2 T00690020
KGOV 170316Z AUTO 23005KT 10SM CLR 07/02 A3014 RMK AO2 T00670020
KGOV 170255Z AUTO 23006KT 10SM CLR 07/02 A3015 RMK AO2 T00690020
KGOV 170235Z AUTO 22007KT 10SM CLR 08/02 A3014 RMK AO2 T00750016
KGOV 170216Z AUTO 22004KT 10SM CLR 07/02 A3015 RMK AO2 T00720018
KGOV 170155Z AUTO 23004KT 10SM CLR 07/02 A3015 RMK AO2 T00690018
KGOV 170136Z AUTO 23004KT 10SM CLR 07/02 A3016 RMK AO2 T00700018
KGOV 170116Z AUTO 22003KT 10SM CLR 07/02 A3016 RMK AO2 T00700017
KGOV 170055Z AUTO 20003KT 10SM CLR 08/02 A3016 RMK AO2 T00750018
KGOV 170036Z AUTO 21004KT 10SM CLR 07/02 A3017 RMK AO2 T00700019
KGOV 170016Z AUTO 17003KT 10SM CLR 07/02 A3017 RMK AO2 T00720018
KGOV 162355Z AUTO 22003KT 10SM CLR 08/02 A3017 RMK AO2 T00800016 10124 20080
KGOV 162336Z AUTO 24003KT 10SM CLR 08/02 A3017 RMK AO2 T00830016
KGOV 162316Z AUTO 23003KT 10SM CLR 09/02 A3017 RMK AO2 T00850016
KGOV 162255Z AUTO 24004KT 10SM CLR 09/01 A3018 RMK AO2 T00900010
KGOV 162236Z AUTO 24003KT 10SM CLR 10/01 A3018 RMK AO2 T00970010
KGOV 162216Z AUTO 25004KT 10SM CLR 11/01 A3018 RMK AO2 T01090010
KGOV 162155Z AUTO 26006KT 10SM SCT060 12/01 A3017 RMK AO2 T01150014
KGOV 162136Z AUTO 24007KT 10SM SCT044 SCT060 11/02 A3017 RMK AO2 T01140015
KGOV 162115Z AUTO 24005G14KT 10SM SCT046 SCT060 12/02 A3018 RMK AO2 T01190015
KGOV 162055Z AUTO 24008G14KT 10SM SCT047 SCT060 11/01 A3018 RMK AO2 T01140013
KGOV 162036Z AUTO 25006KT 10SM SCT047 BKN060 11/02 A3018 RMK AO2 T01110015
KGOV 162015Z AUTO 24005KT 10SM SCT060 12/02 A3018 RMK AO2 T01170015
KGOV 161955Z AUTO 24010KT 210V270 10SM SCT048 SCT055 BKN065 12/01 A3018 RMK AO2 T01210011
KGOV 161936Z AUTO 24008G14KT 10SM SCT055 BKN065 12/01 A3019 RMK AO2 T01150014
KGOV 161915Z AUTO 25010G16KT 10SM SCT042 SCT055 BKN065 12/02 A3019 RMK AO2 T01150016
KGOV 161855Z AUTO 21009G14KT 10SM SCT039 SCT046 BKN050 11/02 A3019 RMK AO2 T01110019
KGOV 161836Z AUTO 23005KT 10SM SCT041 SCT060 SCT070 10/02 A3020 RMK AO2 T01030020
KGOV 161815Z AUTO 26008KT 220V300 10SM SCT060 11/02 A3020 RMK AO2 T01110024
KGOV 161756Z AUTO 25008KT 210V280 10SM SCT044 SCT050 BKN060 11/02 A3021 RMK AO2 T01070023 10107 21026
KGOV 161736Z AUTO 23006KT 200V270 10SM SCT045 SCT060 10/03 A3022 RMK AO2 T01020028
KGOV 161715Z AUTO 22007KT 10SM SCT032 BKN040 BKN049 11/03 A3023 RMK AO2 T01070028
KGOV 161656Z AUTO 24007KT 10SM SCT032 BKN037 BKN046 10/02 A3024 RMK AO2 T00970021
KGOV 161635Z AUTO 19010KT 10SM SCT030 10/02 A3024 RMK AO2 T01000020
KGOV 161615Z AUTO 22005KT 10SM SCT060 09/02 A3025 RMK AO2 T00900015
KGOV 161556Z AUTO 19004KT 10SM SCT080 09/02 A3025 RMK AO2 T00880018
KGOV 161535Z AUTO 19006KT 160V220 10SM BKN080 08/01 A3025 RMK AO2 T00820011
KGOV 161515Z AUTO 17007KT 10SM SCT080 08/01 A3025 RMK AO2 T00790013
KGOV 161456Z AUTO 18008KT 10SM SCT090 07/01 A3025 RMK AO2 T00700011
KGOV 161435Z AUTO 20004KT 10SM CLR 06/01 A3026 RMK AO2 T00630013
KGOV 161415Z AUTO 17005KT 10SM SCT095 05/02 A3026 RMK AO2 T00510016
KGOV 161356Z AUTO 00000KT 10SM SCT095 04/01 A3026 RMK AO2 T00400014
KGOV 161335Z AUTO 00000KT 10SM CLR 02/00 A3026 RMK AO2 T00150001
KGOV 161315Z AUTO 00000KT 10SM CLR 00/M01 A3026 RMK AO2 T00001012
KGOV 161256Z AUTO 00000KT 10SM CLR M01/M02 A3026 RMK AO2 T10081018
KGOV 161235Z AUTO 00000KT 10SM CLR M02/M03 A3026 RMK AO2 T10161027
KGOV 161215Z AUTO 00000KT 10SM CLR M02/M03 A3024 RMK AO2 T10191029
KGOV 161156Z AUTO 00000KT 10SM SCT120 M02/M03 A3024 RMK AO2 T10181029 10000 21021
KGOV 161135Z AUTO 00000KT 10SM SCT110 M01/M02 A3024 RMK AO2 T10131025
KGOV 161115Z AUTO 00000KT 10SM CLR M01/M02 A3024 RMK AO2 T10141022
KGOV 161056Z AUTO 32003KT 7SM CLR M01/M02 A3024 RMK AO2 T10151025
KGOV 161035Z AUTO 00000KT 10SM SCT120 M01/M02 A3023 RMK AO2 T10081017
KGOV 161015Z AUTO 00000KT 10SM BKN120 M01/M02 A3023 RMK AO2 T10111022
KGOV 160956Z AUTO 00000KT 10SM OVC120 M01/M02 A3022 RMK AO2 T10071017
KGOV 160935Z AUTO 00000KT 10SM BKN120 00/M01 A3021 RMK AO2 T10051015
KGOV 160915Z AUTO 00000KT 10SM OVC120 M01/M02 A3021 RMK AO2 T10101020
KGOV 160856Z AUTO 00000KT 10SM SCT110 M02/M03 A3020 RMK AO2 T10201030
KGOV 160836Z AUTO 00000KT 10SM CLR M01/M02 A3020 RMK AO2 T10141022
KGOV 160815Z AUTO 00000KT 1 1/2SM BR VV007 M01/M02 A3019 RMK AO2 VIS 1/2V5 T10101018
KGOV 160756Z AUTO 00000KT 1 1/4SM BR VV007 M01/M01 A3019 RMK AO2 T10071014
KGOV 160736Z AUTO 00000KT 10SM CLR M01/M02 A3019 RMK AO2 T10101018
KGOV 160715Z AUTO 00000KT 10SM CLR 00/M01 A3019 RMK AO2 T10021011
KGOV 160656Z AUTO 00000KT 10SM CLR 00/00 A3019 RMK AO2 T00001005